createdAt,value
2019-05-30T00:01:58.565Z,11.30
2019-05-30T00:04:27.850Z,10.50
2019-05-30T00:06:58.539Z,10.80
2019-05-30T00:09:27.808Z,10.55
2019-05-30T00:11:56.937Z,10.50
2019-05-30T00:14:26.090Z,10.55
2019-05-30T00:16:56.665Z,10.10
2019-05-30T00:19:26.004Z,10.43
2019-05-30T00:21:55.149Z,10.23
2019-05-30T00:24:24.347Z,9.90
2019-05-30T00:26:53.468Z,11.03
2019-05-30T00:29:22.599Z,10.03
2019-05-30T00:31:51.756Z,9.88
2019-05-30T00:34:20.981Z,9.90
2019-05-30T00:36:50.189Z,9.60
2019-05-30T00:39:19.306Z,9.68
2019-05-30T00:41:48.599Z,10.25
2019-05-30T00:44:17.758Z,10.35
2019-05-30T00:46:46.883Z,10.23
2019-05-30T00:49:16.112Z,10.30
2019-05-30T00:51:45.292Z,10.40
2019-05-30T00:54:14.453Z,9.80
2019-05-30T00:56:43.737Z,10.45
2019-05-30T00:59:12.851Z,10.20
2019-05-30T01:01:42.049Z,10.80
2019-05-30T01:04:11.147Z,10.70
2019-05-30T01:06:40.313Z,10.80
2019-05-30T01:09:09.415Z,11.05
2019-05-30T01:11:38.533Z,10.60
2019-05-30T01:14:07.704Z,9.80
2019-05-30T01:16:36.791Z,9.85
2019-05-30T01:19:05.875Z,10.23
2019-05-30T01:21:35.093Z,10.00
2019-05-30T01:24:05.625Z,9.30
2019-05-30T01:26:34.888Z,9.60
2019-05-30T01:29:05.474Z,9.58
2019-05-30T01:31:34.942Z,9.03
2019-05-30T01:34:04.086Z,8.80
2019-05-30T01:36:33.194Z,8.53
2019-05-30T01:39:02.411Z,9.17
2019-05-30T01:41:31.502Z,8.85
2019-05-30T01:44:01.842Z,8.63
2019-05-30T01:46:31.042Z,8.00
2019-05-30T01:49:00.290Z,7.93
2019-05-30T01:51:29.416Z,8.30
2019-05-30T01:53:58.673Z,7.80
2019-05-30T01:56:27.775Z,8.43
2019-05-30T01:58:56.878Z,7.50
2019-05-30T02:01:26.021Z,8.10
2019-05-30T02:03:55.250Z,8.00
2019-05-30T02:06:24.506Z,7.72
2019-05-30T02:08:53.582Z,8.40
2019-05-30T02:11:22.765Z,7.90
2019-05-30T02:13:52.018Z,7.83
2019-05-30T02:16:21.144Z,8.25
2019-05-30T02:18:50.272Z,8.60
2019-05-30T02:21:19.526Z,9.00
2019-05-30T02:23:48.601Z,8.38
2019-05-30T02:26:17.738Z,9.00
2019-05-30T02:28:46.841Z,8.60
2019-05-30T02:31:15.945Z,8.23
2019-05-30T02:33:45.085Z,9.13
2019-05-30T02:36:14.177Z,9.18
2019-05-30T02:38:43.316Z,8.30
2019-05-30T02:41:13.279Z,8.33
2019-05-30T02:43:42.358Z,8.40
2019-05-30T02:46:12.579Z,8.53
2019-05-30T02:48:58.008Z,8.30
2019-05-30T02:51:12.930Z,8.80
2019-05-30T02:53:42.215Z,8.85
2019-05-30T02:56:12.700Z,8.50
2019-05-30T02:58:41.934Z,8.33
2019-05-30T03:01:12.127Z,8.50
2019-05-30T03:03:41.926Z,8.63
2019-05-30T03:06:13.585Z,8.68
2019-05-30T03:08:41.912Z,8.80
2019-05-30T03:11:15.036Z,8.93
2019-05-30T03:13:42.248Z,8.63
2019-05-30T03:16:13.511Z,9.15
2019-05-30T03:18:42.162Z,8.53
2019-05-30T03:21:13.412Z,8.83
2019-05-30T03:23:42.145Z,8.75
2019-05-30T03:26:13.695Z,8.80
2019-05-30T03:28:42.235Z,8.55
2019-05-30T03:31:23.072Z,8.75
2019-05-30T03:33:43.409Z,8.80
2019-05-30T03:36:26.418Z,8.60
2019-05-30T03:38:43.681Z,8.48
2019-05-30T03:41:12.816Z,8.80
2019-05-30T03:43:41.946Z,9.63
2019-05-30T03:46:18.591Z,8.70
2019-05-30T03:48:50.620Z,9.30
2019-05-30T03:51:21.445Z,9.63
2019-05-30T03:53:51.308Z,9.30
2019-05-30T03:56:24.454Z,9.28
2019-05-30T03:59:32.224Z,9.00
2019-05-30T04:02:09.556Z,9.50
2019-05-30T04:04:43.038Z,9.48
2019-05-30T04:07:19.429Z,9.43
2019-05-30T04:09:51.190Z,9.40
2019-05-30T04:12:41.932Z,9.50
2019-05-30T04:15:18.676Z,9.95
2019-05-30T04:17:48.048Z,9.20
2019-05-30T04:20:21.215Z,9.38
2019-05-30T04:22:48.077Z,9.60
2019-05-30T04:25:18.330Z,9.45
2019-05-30T04:27:47.769Z,8.83
2019-05-30T04:30:18.404Z,9.48
2019-05-30T04:32:47.708Z,10.50
2019-05-30T04:35:18.786Z,9.40
2019-05-30T04:37:47.769Z,9.10
2019-05-30T04:40:19.201Z,9.20
2019-05-30T04:42:48.557Z,10.15
2019-05-30T04:45:18.141Z,9.93
2019-05-30T04:47:47.962Z,9.15
2019-05-30T04:50:18.767Z,9.38
2019-05-30T04:52:48.146Z,9.43
2019-05-30T04:55:18.509Z,9.40
2019-05-30T04:57:48.165Z,9.33
2019-05-30T05:00:19.309Z,9.50
2019-05-30T05:02:48.615Z,9.20
2019-05-30T05:05:24.758Z,9.03
2019-05-30T05:07:50.404Z,9.48
2019-05-30T05:10:20.360Z,10.40
2019-05-30T05:12:49.509Z,10.32
2019-05-30T05:15:18.867Z,9.30
2019-05-30T05:17:47.994Z,9.55
2019-05-30T05:20:17.406Z,9.33
2019-05-30T05:22:46.587Z,9.58
2019-05-30T05:25:15.742Z,9.38
2019-05-30T05:27:44.848Z,9.23
2019-05-30T05:30:16.042Z,9.60
2019-05-30T05:32:45.215Z,10.23
2019-05-30T05:35:14.807Z,9.70
2019-05-30T05:37:44.098Z,9.18
2019-05-30T05:40:13.569Z,9.25
2019-05-30T05:42:42.906Z,11.00
2019-05-30T05:45:12.456Z,9.45
2019-05-30T05:47:41.620Z,9.98
2019-05-30T05:50:11.979Z,10.58
2019-05-30T05:52:41.274Z,10.65
2019-05-30T05:55:10.535Z,10.60
2019-05-30T05:57:39.669Z,11.80
2019-05-30T06:00:10.072Z,11.80
2019-05-30T06:02:39.279Z,12.13
2019-05-30T06:05:08.539Z,12.20
2019-05-30T06:07:37.687Z,13.15
2019-05-30T06:10:07.259Z,13.05
2019-05-30T06:12:36.416Z,12.90
2019-05-30T06:15:05.784Z,12.20
2019-05-30T06:17:34.917Z,12.65
2019-05-30T06:20:04.357Z,13.20
2019-05-30T06:22:33.619Z,13.10
2019-05-30T06:25:03.695Z,13.10
2019-05-30T06:27:32.789Z,13.20
2019-05-30T06:30:02.026Z,12.70
2019-05-30T06:32:31.452Z,12.40
2019-05-30T06:35:00.620Z,12.90
2019-05-30T06:37:29.742Z,11.80
2019-05-30T06:39:58.888Z,11.65
2019-05-30T06:42:28.308Z,11.13
2019-05-30T06:44:57.544Z,9.43
2019-05-30T06:47:26.678Z,10.43
2019-05-30T06:49:55.828Z,11.08
2019-05-30T06:52:25.016Z,10.78
2019-05-30T06:54:54.115Z,10.23
2019-05-30T06:57:23.242Z,9.83
2019-05-30T06:59:52.393Z,9.93
2019-05-30T07:02:22.296Z,10.60
2019-05-30T07:04:52.924Z,8.93
2019-05-30T07:07:22.984Z,8.48
2019-05-30T07:09:52.338Z,7.75
2019-05-30T07:12:22.818Z,9.33
2019-05-30T07:14:52.067Z,8.50
2019-05-30T07:17:21.282Z,8.38
2019-05-30T07:19:50.407Z,7.40
2019-05-30T07:22:19.617Z,6.30
2019-05-30T07:24:48.740Z,6.30
2019-05-30T07:27:17.953Z,6.00
2019-05-30T07:29:47.112Z,7.00
2019-05-30T07:32:16.260Z,7.50
2019-05-30T07:34:46.138Z,7.20
2019-05-30T07:37:17.376Z,6.90
2019-05-30T07:39:46.515Z,5.45
2019-05-30T07:42:15.696Z,6.58
2019-05-30T07:44:44.881Z,6.47
2019-05-30T07:47:14.007Z,6.60
2019-05-30T07:49:43.169Z,5.90
2019-05-30T07:52:12.313Z,5.25
2019-05-30T07:54:41.640Z,5.05
2019-05-30T07:57:10.752Z,6.65
2019-05-30T07:59:40.083Z,5.60
2019-05-30T08:02:09.395Z,5.30
2019-05-30T08:04:38.625Z,5.55
2019-05-30T08:07:07.867Z,4.75
2019-05-30T08:09:37.047Z,4.22
2019-05-30T08:12:06.176Z,4.30
2019-05-30T08:14:35.381Z,4.58
2019-05-30T08:17:04.662Z,4.33
2019-05-30T08:19:34.376Z,4.70
2019-05-30T08:22:03.674Z,4.87
2019-05-30T08:24:34.395Z,4.78
2019-05-30T08:27:03.915Z,4.80
2019-05-30T08:29:34.280Z,4.67
2019-05-30T08:32:03.452Z,4.47
2019-05-30T08:34:32.689Z,4.20
2019-05-30T08:37:01.805Z,4.80
2019-05-30T08:39:30.952Z,4.33
2019-05-30T08:42:00.129Z,3.90
2019-05-30T08:44:29.440Z,3.20
2019-05-30T08:46:58.639Z,3.08
2019-05-30T08:49:27.856Z,3.10
2019-05-30T08:51:57.009Z,4.95
2019-05-30T08:54:26.126Z,3.80
2019-05-30T08:56:55.284Z,4.40
2019-05-30T08:59:24.424Z,4.53
2019-05-30T09:01:53.579Z,4.80
2019-05-30T09:04:22.712Z,4.80
2019-05-30T09:06:51.907Z,4.60
2019-05-30T09:09:21.085Z,4.63
2019-05-30T09:11:50.256Z,4.80
2019-05-30T09:14:19.395Z,3.60
2019-05-30T09:16:49.614Z,4.05
2019-05-30T09:19:19.024Z,3.90
2019-05-30T09:21:48.374Z,3.40
2019-05-30T09:24:17.571Z,4.00
2019-05-30T09:26:50.032Z,3.80
2019-05-30T09:29:17.666Z,3.90
2019-05-30T09:31:46.959Z,3.60
2019-05-30T09:34:16.066Z,4.00
2019-05-30T09:36:45.247Z,3.73
2019-05-30T09:39:14.463Z,3.52
2019-05-30T09:41:43.890Z,4.90
2019-05-30T09:44:13.109Z,4.12
2019-05-30T09:46:42.542Z,3.00
2019-05-30T09:49:11.793Z,3.55
2019-05-30T09:51:42.488Z,3.33
2019-05-30T09:54:11.823Z,3.50
2019-05-30T09:56:42.042Z,3.10
2019-05-30T09:59:11.912Z,4.00
2019-05-30T10:01:42.576Z,3.60
2019-05-30T10:04:11.947Z,3.50
2019-05-30T10:06:42.081Z,5.22
2019-05-30T10:09:12.004Z,3.40
2019-05-30T10:11:41.228Z,3.50
2019-05-30T10:14:10.397Z,3.60
2019-05-30T10:16:39.597Z,3.20
2019-05-30T10:19:08.776Z,4.50
2019-05-30T10:21:38.110Z,3.10
2019-05-30T10:24:07.279Z,2.75
2019-05-30T10:26:36.621Z,2.50
2019-05-30T10:29:05.943Z,2.58
2019-05-30T10:31:35.130Z,2.60
2019-05-30T10:34:04.521Z,2.40
2019-05-30T10:36:43.857Z,2.08
2019-05-30T10:39:05.798Z,2.57
2019-05-30T10:41:34.934Z,2.62
2019-05-30T10:44:04.093Z,2.23
2019-05-30T10:46:33.292Z,2.52
2019-05-30T10:49:02.697Z,2.40
2019-05-30T10:51:31.898Z,2.50
2019-05-30T10:54:01.267Z,2.40
2019-05-30T10:56:30.441Z,2.30
2019-05-30T10:58:59.610Z,2.10
2019-05-30T11:01:28.776Z,3.20
2019-05-30T11:03:57.898Z,3.10
2019-05-30T11:06:42.527Z,2.60
2019-05-30T11:09:13.333Z,2.77
2019-05-30T11:11:42.475Z,3.40
2019-05-30T11:14:11.668Z,3.67
2019-05-30T11:16:40.887Z,1.92
2019-05-30T11:19:10.108Z,2.40
2019-05-30T11:21:39.308Z,3.22
2019-05-30T11:24:08.444Z,2.30
2019-05-30T11:26:37.686Z,2.00
2019-05-30T11:29:06.901Z,2.10
2019-05-30T11:31:36.109Z,2.10
2019-05-30T11:34:05.393Z,2.50
2019-05-30T11:36:34.505Z,2.80
2019-05-30T11:39:04.402Z,2.40
2019-05-30T11:41:33.562Z,2.05
2019-05-30T11:44:04.230Z,1.60
2019-05-30T11:46:33.565Z,2.30
2019-05-30T11:49:02.710Z,2.25
2019-05-30T11:51:31.941Z,3.30
2019-05-30T11:54:01.232Z,2.45
2019-05-30T11:56:30.335Z,2.30
2019-05-30T11:59:00.186Z,1.80
2019-05-30T12:01:29.533Z,1.70
2019-05-30T12:03:58.833Z,3.33
2019-05-30T12:06:27.954Z,2.50
2019-05-30T12:08:57.136Z,2.10
2019-05-30T12:11:26.291Z,2.33
2019-05-30T12:13:57.083Z,2.80
2019-05-30T12:16:26.562Z,1.70
2019-05-30T12:18:55.867Z,2.60
2019-05-30T12:21:25.047Z,2.30
2019-05-30T12:23:54.531Z,2.20
2019-05-30T12:26:23.782Z,2.25
2019-05-30T12:28:54.097Z,2.72
2019-05-30T12:31:23.325Z,2.00
2019-05-30T12:33:52.495Z,1.70
2019-05-30T12:36:21.627Z,3.70
2019-05-30T12:38:50.793Z,3.47
2019-05-30T12:41:19.970Z,2.37
2019-05-30T12:43:49.125Z,1.87
2019-05-30T12:46:20.396Z,2.40
2019-05-30T12:48:49.605Z,2.17
2019-05-30T12:51:18.787Z,2.67
2019-05-30T12:53:48.003Z,2.57
2019-05-30T12:56:17.120Z,2.40
2019-05-30T12:58:46.346Z,2.15
2019-05-30T13:01:17.971Z,2.00
2019-05-30T13:03:47.146Z,2.83
2019-05-30T13:06:16.273Z,3.60
2019-05-30T13:08:45.592Z,1.80
2019-05-30T13:11:14.868Z,1.80
2019-05-30T13:13:44.040Z,1.50
2019-05-30T13:16:13.200Z,1.90
2019-05-30T13:18:42.356Z,1.70
2019-05-30T13:21:11.548Z,1.50
2019-05-30T13:23:40.746Z,2.33
2019-05-30T13:26:09.955Z,2.05
2019-05-30T13:28:39.106Z,2.80
2019-05-30T13:31:08.243Z,1.90
2019-05-30T13:33:38.608Z,2.33
2019-05-30T13:36:07.946Z,2.45
2019-05-30T13:38:37.116Z,1.98
2019-05-30T13:41:06.285Z,3.30
2019-05-30T13:43:35.437Z,2.00
2019-05-30T13:46:04.731Z,1.60
2019-05-30T13:48:33.911Z,1.98
2019-05-30T13:51:03.081Z,3.45
2019-05-30T13:53:32.295Z,2.10
2019-05-30T13:56:01.538Z,2.52
2019-05-30T13:58:30.873Z,1.73
2019-05-30T14:01:04.248Z,1.80
2019-05-30T14:03:31.024Z,1.70
2019-05-30T14:06:00.172Z,2.08
2019-05-30T14:08:41.105Z,2.30
2019-05-30T14:11:02.499Z,4.30
2019-05-30T14:13:31.685Z,2.60
2019-05-30T14:16:01.006Z,2.12
2019-05-30T14:18:30.229Z,3.00
2019-05-30T14:20:59.359Z,2.77
2019-05-30T14:23:28.512Z,2.45
2019-05-30T14:25:57.680Z,1.73
2019-05-30T14:28:26.872Z,1.85
2019-05-30T14:30:56.080Z,1.70
2019-05-30T14:33:25.368Z,2.08
2019-05-30T14:35:54.479Z,1.50
2019-05-30T14:38:23.694Z,1.80
2019-05-30T14:40:52.949Z,1.95
2019-05-30T14:43:22.103Z,1.98
2019-05-30T14:45:51.780Z,2.40
2019-05-30T14:48:20.889Z,1.55
2019-05-30T14:50:50.027Z,1.55
2019-05-30T14:53:19.195Z,2.17
2019-05-30T14:55:48.322Z,2.40
2019-05-30T14:58:17.832Z,2.20
2019-05-30T15:00:47.202Z,2.50
2019-05-30T15:03:17.527Z,1.70
2019-05-30T15:05:46.763Z,1.90
2019-05-30T15:08:16.910Z,1.77
2019-05-30T15:10:46.460Z,1.60
2019-05-30T15:13:15.835Z,1.80
2019-05-30T15:15:44.885Z,1.60
2019-05-30T15:18:14.032Z,1.80
2019-05-30T15:20:43.164Z,3.00
2019-05-30T15:23:12.358Z,3.02
2019-05-30T15:25:44.307Z,1.80
2019-05-30T15:28:14.130Z,2.40
2019-05-30T15:30:43.433Z,1.90
2019-05-30T15:33:12.713Z,3.00
2019-05-30T15:35:41.769Z,3.10
2019-05-30T15:38:10.966Z,3.25
2019-05-30T15:40:40.443Z,3.75
2019-05-30T15:43:09.588Z,3.23
2019-05-30T15:45:38.748Z,1.60
2019-05-30T15:48:08.305Z,2.15
2019-05-30T15:50:37.471Z,2.00
2019-05-30T15:53:06.629Z,1.82
2019-05-30T15:55:35.752Z,1.70
2019-05-30T15:58:04.938Z,1.60
2019-05-30T16:00:36.920Z,1.82
2019-05-30T16:03:05.266Z,2.33
2019-05-30T16:05:34.430Z,2.02
2019-05-30T16:08:03.603Z,2.27
2019-05-30T16:10:32.738Z,2.30
2019-05-30T16:13:01.909Z,2.90
2019-05-30T16:15:31.048Z,1.70
2019-05-30T16:18:00.566Z,1.70
2019-05-30T16:20:29.715Z,1.67
2019-05-30T16:22:58.929Z,1.75
2019-05-30T16:25:28.061Z,2.40
2019-05-30T16:27:57.262Z,2.73
2019-05-30T16:30:27.126Z,1.80
2019-05-30T16:32:56.350Z,2.23
2019-05-30T16:35:26.503Z,2.47
2019-05-30T16:37:55.708Z,2.50
2019-05-30T16:40:24.905Z,2.77
2019-05-30T16:42:54.093Z,2.20
2019-05-30T16:45:25.362Z,1.80
2019-05-30T16:47:55.085Z,3.13
2019-05-30T16:50:24.673Z,2.60
2019-05-30T16:52:53.834Z,2.05
2019-05-30T16:55:23.496Z,3.30
2019-05-30T16:57:52.622Z,3.23
2019-05-30T17:00:22.401Z,2.25
2019-05-30T17:02:51.642Z,2.22
2019-05-30T17:05:20.770Z,1.80
2019-05-30T17:07:49.930Z,2.15
2019-05-30T17:10:27.484Z,1.80
2019-05-30T17:12:50.176Z,1.70
2019-05-30T17:15:19.998Z,3.62
2019-05-30T17:17:49.119Z,3.50
2019-05-30T17:20:18.636Z,2.00
2019-05-30T17:22:47.803Z,1.92
2019-05-30T17:25:17.164Z,3.40
2019-05-30T17:27:46.376Z,1.72
2019-05-30T17:30:17.405Z,1.60
2019-05-30T17:32:47.051Z,2.70
2019-05-30T17:35:16.298Z,1.80
2019-05-30T17:37:45.433Z,2.35
2019-05-30T17:40:15.168Z,2.70
2019-05-30T17:42:44.324Z,2.50
2019-05-30T17:45:15.239Z,3.50
2019-05-30T17:47:44.383Z,2.57
2019-05-30T17:50:13.740Z,2.25
2019-05-30T17:52:42.862Z,2.08
2019-05-30T17:55:13.948Z,3.30
2019-05-30T17:57:43.142Z,2.40
2019-05-30T18:00:13.096Z,2.02
2019-05-30T18:02:42.285Z,2.67
2019-05-30T18:05:11.780Z,2.70
2019-05-30T18:07:41.445Z,2.27
2019-05-30T18:10:12.374Z,2.00
2019-05-30T18:12:41.516Z,2.33
2019-05-30T18:15:11.395Z,3.35
2019-05-30T18:17:40.588Z,1.80
2019-05-30T18:20:10.493Z,2.25
2019-05-30T18:22:39.657Z,4.30
2019-05-30T18:25:10.708Z,1.80
2019-05-30T18:27:39.886Z,1.70
2019-05-30T18:30:09.620Z,2.00
2019-05-30T18:32:38.784Z,1.90
2019-05-30T18:35:08.686Z,2.10
2019-05-30T18:37:38.462Z,2.20
2019-05-30T18:40:08.088Z,1.52
2019-05-30T18:42:37.439Z,2.00
2019-05-30T18:45:08.193Z,1.95
2019-05-30T18:47:37.338Z,2.83
2019-05-30T18:50:06.805Z,3.30
2019-05-30T18:52:36.812Z,2.10
2019-05-30T18:55:06.660Z,2.20
2019-05-30T18:57:37.128Z,3.50
2019-05-30T19:00:07.593Z,2.70
2019-05-30T19:02:36.982Z,3.33
2019-05-30T19:05:06.950Z,3.00
2019-05-30T19:07:37.209Z,2.95
2019-05-30T19:10:07.063Z,3.62
2019-05-30T19:12:36.639Z,3.10
2019-05-30T19:15:06.861Z,4.00
2019-05-30T19:17:36.153Z,4.00
2019-05-30T19:20:05.727Z,3.15
2019-05-30T19:22:36.295Z,4.20
2019-05-30T19:25:05.977Z,2.80
2019-05-30T19:27:37.995Z,4.08
2019-05-30T19:30:06.814Z,2.65
2019-05-30T19:32:36.940Z,3.47
2019-05-30T19:35:07.398Z,2.20
2019-05-30T19:37:37.616Z,4.00
2019-05-30T19:40:07.447Z,2.50
2019-05-30T19:42:37.866Z,2.83
2019-05-30T19:45:08.097Z,2.75
2019-05-30T19:47:38.598Z,2.70
2019-05-30T19:50:09.529Z,3.10
2019-05-30T19:52:39.213Z,4.10
2019-05-30T19:55:09.019Z,5.95
2019-05-30T19:57:38.110Z,4.75
2019-05-30T20:00:08.531Z,4.03
2019-05-30T20:02:38.311Z,4.20
2019-05-30T20:05:08.381Z,3.62
2019-05-30T20:07:38.760Z,3.27
2019-05-30T20:10:08.279Z,3.30
2019-05-30T20:12:37.489Z,3.42
2019-05-30T20:15:08.083Z,4.85
2019-05-30T20:17:37.611Z,5.67
2019-05-30T20:20:07.586Z,7.25
2019-05-30T20:22:38.126Z,5.60
2019-05-30T20:25:08.263Z,4.67
2019-05-30T20:27:38.808Z,4.73
2019-05-30T20:30:09.750Z,5.12
2019-05-30T20:32:39.057Z,6.90
2019-05-30T20:35:08.322Z,6.95
2019-05-30T20:37:38.640Z,5.53
2019-05-30T20:40:08.120Z,5.28
2019-05-30T20:42:37.398Z,4.55
2019-05-30T20:45:09.913Z,11.50
2019-05-30T20:47:39.363Z,14.38
2019-05-30T20:50:09.291Z,4.50
2019-05-30T20:52:41.847Z,4.40
2019-05-30T20:55:09.775Z,4.00
2019-05-30T20:57:39.002Z,4.30
2019-05-30T21:00:08.653Z,3.95
2019-05-30T21:02:39.083Z,4.40
2019-05-30T21:05:10.157Z,4.70
2019-05-30T21:07:41.944Z,3.83
2019-05-30T21:10:12.842Z,3.92
2019-05-30T21:12:46.753Z,5.40
2019-05-30T21:15:14.766Z,3.50
2019-05-30T21:17:46.373Z,3.37
2019-05-30T21:20:15.595Z,3.50
2019-05-30T21:22:44.934Z,3.40
2019-05-30T21:25:14.371Z,3.40
2019-05-30T21:27:43.528Z,3.10
2019-05-30T21:30:13.218Z,3.42
2019-05-30T21:32:44.112Z,3.10
2019-05-30T21:35:14.320Z,2.98
2019-05-30T21:37:43.877Z,3.00
2019-05-30T21:40:13.017Z,3.70
2019-05-30T21:42:58.243Z,3.47
2019-05-30T21:45:13.499Z,4.03
2019-05-30T21:47:42.902Z,4.45
2019-05-30T21:50:12.314Z,3.30
2019-05-30T21:52:41.639Z,4.33
2019-05-30T21:55:11.063Z,2.92
2019-05-30T21:57:40.276Z,3.80
2019-05-30T22:00:12.419Z,5.90
2019-05-30T22:02:44.563Z,3.00
2019-05-30T22:05:13.839Z,3.40
2019-05-30T22:07:43.127Z,4.10
2019-05-30T22:10:12.259Z,5.10
2019-05-30T22:12:41.550Z,4.95
2019-05-30T22:15:10.963Z,3.85
2019-05-30T22:17:43.760Z,3.70
2019-05-30T22:20:13.055Z,3.77
2019-05-30T22:22:42.246Z,3.50
2019-05-30T22:25:11.472Z,4.62
2019-05-30T22:27:40.656Z,18.90
2019-05-30T22:30:09.892Z,8.60
2019-05-30T22:32:39.039Z,10.65
2019-05-30T22:35:08.240Z,6.12
2019-05-30T22:37:37.348Z,7.83
2019-05-30T22:40:06.523Z,3.98
2019-05-30T22:42:35.676Z,2.87
2019-05-30T22:45:05.119Z,2.65
2019-05-30T22:47:34.245Z,2.85
2019-05-30T22:50:03.372Z,4.50
2019-05-30T22:52:32.640Z,3.17
2019-05-30T22:55:01.822Z,3.40
2019-05-30T22:57:30.949Z,3.80
2019-05-30T23:00:00.036Z,3.20
2019-05-30T23:02:29.208Z,2.70
2019-05-30T23:04:58.342Z,2.72
2019-05-30T23:07:27.452Z,2.70
2019-05-30T23:09:56.566Z,3.90
2019-05-30T23:12:25.725Z,2.40
2019-05-30T23:14:54.882Z,3.50
2019-05-30T23:17:24.016Z,2.98
2019-05-30T23:19:53.285Z,2.90
2019-05-30T23:22:22.636Z,3.10
2019-05-30T23:24:52.611Z,2.70
2019-05-30T23:27:22.880Z,3.30
2019-05-30T23:29:52.002Z,2.90
2019-05-30T23:32:21.158Z,2.60
2019-05-30T23:34:50.283Z,2.77
2019-05-30T23:37:19.472Z,2.85
2019-05-30T23:39:48.771Z,2.58
2019-05-30T23:42:17.974Z,2.90
2019-05-30T23:44:47.082Z,2.92
2019-05-30T23:47:16.258Z,6.03
2019-05-30T23:49:45.497Z,3.00
2019-05-30T23:52:14.614Z,2.52
2019-05-30T23:54:43.726Z,2.80
2019-05-30T23:57:12.845Z,3.20
2019-05-30T23:59:42.012Z,3.05
